Time;durP1;ratioP1;P1;durP2;ratioP2;P2;SDS_P1;SDS_P2;PMS_P1;PMS_P2;Temp;Humidity;BMP_temperature;BMP_pressure;BME280_temperature;BME280_humidity;BME280_pressure;Samples;Min_cycle;Max_cycle;Signal;HPM_P1;HPM_P2
2022/03/04 00:01:18;;;;;;;15.75;8.52;;;;;;;;;;4988590;28;20029;-78
2022/03/04 00:03:44;;;;;;;18.73;9.07;;;;;;;;;;4978472;28;20121;-78
2022/03/04 00:06:09;;;;;;;17.38;8.52;;;;;;;;;;4983541;28;20061;-78
2022/03/04 00:08:35;;;;;;;20.52;8.55;;;;;;;;;;5000309;28;20030;-79
2022/03/04 00:11:02;;;;;;;20.02;9.90;;;;;;;;;;5006108;28;20034;-79
2022/03/04 00:13:29;;;;;;;16.02;9.02;;;;;;;;;;4996232;28;20030;-78
2022/03/04 00:15:55;;;;;;;20.35;9.15;;;;;;;;;;4996741;28;20029;-78
2022/03/04 00:18:20;;;;;;;18.30;8.75;;;;;;;;;;4999416;28;20026;-79
2022/03/04 00:20:45;;;;;;;16.42;8.88;;;;;;;;;;4994562;28;20108;-78
2022/03/04 00:23:11;;;;;;;13.35;7.50;;;;;;;;;;4987510;28;20037;-79
2022/03/04 00:25:36;;;;;;;19.33;9.32;;;;;;;;;;4984814;28;20030;-79
2022/03/04 00:28:02;;;;;;;20.90;8.32;;;;;;;;;;4990842;28;20026;-79
2022/03/04 00:30:27;;;;;;;49.75;18.88;;;;;;;;;;4996789;28;20030;-81
2022/03/04 00:32:53;;;;;;;47.75;21.52;;;;;;;;;;4987374;28;20429;-79
2022/03/04 00:35:18;;;;;;;25.08;11.45;;;;;;;;;;4973361;28;20148;-79
2022/03/04 00:37:43;;;;;;;35.13;15.88;;;;;;;;;;4995664;28;20022;-79
2022/03/04 00:40:10;;;;;;;37.42;16.27;;;;;;;;;;5010401;28;20041;-80
2022/03/04 00:42:35;;;;;;;28.20;12.95;;;;;;;;;;4992553;28;20280;-79
2022/03/04 00:45:01;;;;;;;28.17;12.13;;;;;;;;;;4993895;28;20141;-79
2022/03/04 00:47:27;;;;;;;18.08;9.77;;;;;;;;;;4995708;28;20033;-80
2022/03/04 00:49:52;;;;;;;20.35;11.05;;;;;;;;;;4998560;28;20030;-79
2022/03/04 00:52:18;;;;;;;19.13;9.93;;;;;;;;;;4990731;28;20038;-79
2022/03/04 00:54:43;;;;;;;17.00;9.07;;;;;;;;;;4990892;28;20100;-79
2022/03/04 00:57:08;;;;;;;19.33;9.20;;;;;;;;;;5002355;28;20030;-79
2022/03/04 00:59:34;;;;;;;22.25;9.95;;;;;;;;;;5006398;28;20381;-81
2022/03/04 01:01:59;;;;;;;16.25;9.30;;;;;;;;;;4998844;28;20030;-77
2022/03/04 01:04:25;;;;;;;18.60;9.57;;;;;;;;;;4972988;28;20113;-78
2022/03/04 01:06:50;;;;;;;18.05;9.80;;;;;;;;;;4998864;28;20416;-79
2022/03/04 01:09:16;;;;;;;16.35;8.57;;;;;;;;;;4983487;28;20021;-78
2022/03/04 01:11:41;;;;;;;20.27;10.13;;;;;;;;;;5005689;28;20018;-78
2022/03/04 01:14:08;;;;;;;17.75;9.18;;;;;;;;;;4981385;28;20031;-80
2022/03/04 01:16:34;;;;;;;17.38;9.85;;;;;;;;;;4980036;28;20042;-78
2022/03/04 01:19:01;;;;;;;17.13;9.40;;;;;;;;;;4991567;28;20050;-78
2022/03/04 01:21:26;;;;;;;21.50;9.20;;;;;;;;;;4975199;28;20540;-79
2022/03/04 01:23:51;;;;;;;23.45;9.70;;;;;;;;;;4983300;28;20023;-79
2022/03/04 01:26:17;;;;;;;22.90;9.13;;;;;;;;;;4989214;28;20030;-78
2022/03/04 01:28:42;;;;;;;16.63;8.32;;;;;;;;;;4982038;28;20046;-79
2022/03/04 01:31:10;;;;;;;16.23;8.82;;;;;;;;;;4993656;28;20034;-79
2022/03/04 01:33:36;;;;;;;15.00;8.55;;;;;;;;;;4985074;28;20482;-80
2022/03/04 01:36:01;;;;;;;15.50;7.78;;;;;;;;;;4991732;28;20029;-79
2022/03/04 01:38:27;;;;;;;15.43;8.40;;;;;;;;;;4972730;28;20023;-79
2022/03/04 01:40:52;;;;;;;13.93;8.07;;;;;;;;;;5000298;28;20032;-81
2022/03/04 01:43:17;;;;;;;15.40;8.75;;;;;;;;;;4993073;28;20389;-79
2022/03/04 01:45:43;;;;;;;14.63;8.68;;;;;;;;;;4975689;28;20018;-79
2022/03/04 01:48:08;;;;;;;20.25;9.38;;;;;;;;;;4992422;28;20018;-78
2022/03/04 01:50:35;;;;;;;17.20;9.23;;;;;;;;;;4998555;28;20018;-79
2022/03/04 01:53:01;;;;;;;17.65;8.75;;;;;;;;;;5001159;28;20030;-79
2022/03/04 01:55:26;;;;;;;16.55;9.48;;;;;;;;;;4993948;28;20096;-78
2022/03/04 01:57:51;;;;;;;20.75;8.98;;;;;;;;;;4998749;28;20018;-78
2022/03/04 02:00:17;;;;;;;17.20;9.00;;;;;;;;;;5014205;28;20037;-79
2022/03/04 02:02:44;;;;;;;18.70;9.82;;;;;;;;;;4991999;28;20089;-79
2022/03/04 02:05:14;;;;;;;15.63;9.23;;;;;;;;;;4984657;28;20023;-79
2022/03/04 02:07:40;;;;;;;18.95;8.85;;;;;;;;;;5002983;28;20018;-78
2022/03/04 02:10:06;;;;;;;21.42;9.70;;;;;;;;;;4995891;28;20378;-78
2022/03/04 02:12:31;;;;;;;21.00;9.82;;;;;;;;;;4975536;28;20114;-76
2022/03/04 02:14:56;;;;;;;16.58;9.13;;;;;;;;;;4986644;28;20022;-77
2022/03/04 02:17:22;;;;;;;17.70;9.43;;;;;;;;;;4987679;28;20487;-78
2022/03/04 02:19:54;;;;;;;15.57;8.60;;;;;;;;;;4996453;28;20037;-81
2022/03/04 02:22:20;;;;;;;16.83;9.02;;;;;;;;;;4999918;28;20128;-78
2022/03/04 02:24:45;;;;;;;18.58;8.73;;;;;;;;;;4991355;28;20034;-79
2022/03/04 02:27:11;;;;;;;17.48;9.90;;;;;;;;;;4996065;28;20044;-78
2022/03/04 02:29:37;;;;;;;19.40;9.43;;;;;;;;;;5021902;28;20033;-78
2022/03/04 02:32:03;;;;;;;16.35;9.00;;;;;;;;;;5002946;28;20027;-79
2022/03/04 02:34:29;;;;;;;21.27;9.60;;;;;;;;;;4998696;28;20031;-79
2022/03/04 02:36:54;;;;;;;17.25;8.63;;;;;;;;;;4991205;28;20429;-79
2022/03/04 02:39:20;;;;;;;19.95;9.27;;;;;;;;;;5004713;28;20454;-79
2022/03/04 02:41:45;;;;;;;19.42;9.00;;;;;;;;;;4997830;28;20022;-79
2022/03/04 02:44:12;;;;;;;17.20;8.90;;;;;;;;;;4984168;28;20030;-79
2022/03/04 02:46:38;;;;;;;17.20;9.10;;;;;;;;;;4990797;28;20124;-79
2022/03/04 02:49:05;;;;;;;17.67;9.27;;;;;;;;;;4996981;28;20033;-79
2022/03/04 02:51:30;;;;;;;19.65;9.45;;;;;;;;;;4997648;28;20093;-79
2022/03/04 02:53:56;;;;;;;18.63;10.00;;;;;;;;;;4984410;28;20034;-80
2022/03/04 02:56:21;;;;;;;18.85;9.65;;;;;;;;;;5005662;28;20388;-80
2022/03/04 02:58:47;;;;;;;20.10;8.57;;;;;;;;;;5002214;28;20442;-80
2022/03/04 03:01:12;;;;;;;17.83;8.70;;;;;;;;;;4995715;28;20041;-80
2022/03/04 03:03:37;;;;;;;23.10;9.25;;;;;;;;;;4986750;28;20061;-79
2022/03/04 03:06:04;;;;;;;16.80;8.95;;;;;;;;;;4990169;28;20072;-80
2022/03/04 03:08:29;;;;;;;18.15;8.82;;;;;;;;;;4992756;28;20050;-80
2022/03/04 03:10:55;;;;;;;26.15;9.43;;;;;;;;;;4996343;28;20034;-80
2022/03/04 03:13:21;;;;;;;15.70;8.73;;;;;;;;;;4988438;28;20555;-80
2022/03/04 03:15:47;;;;;;;19.23;9.40;;;;;;;;;;4979768;28;20018;-81
2022/03/04 03:18:12;;;;;;;23.25;9.13;;;;;;;;;;4990905;28;20327;-80
2022/03/04 03:20:38;;;;;;;18.80;9.10;;;;;;;;;;4995635;28;20038;-79
2022/03/04 03:23:03;;;;;;;21.10;9.50;;;;;;;;;;4989094;28;20058;-78
2022/03/04 03:25:29;;;;;;;15.85;9.00;;;;;;;;;;4982012;28;20045;-79
2022/03/04 03:27:54;;;;;;;15.88;8.73;;;;;;;;;;4993837;28;20053;-78
2022/03/04 03:30:19;;;;;;;17.23;9.35;;;;;;;;;;4997584;28;20481;-80
2022/03/04 03:32:45;;;;;;;19.17;9.10;;;;;;;;;;4983663;28;20026;-79
2022/03/04 03:35:10;;;;;;;20.25;8.95;;;;;;;;;;4967932;28;20034;-78
2022/03/04 03:37:37;;;;;;;16.45;10.13;;;;;;;;;;4991894;28;20354;-80
2022/03/04 03:40:05;;;;;;;18.35;9.45;;;;;;;;;;5001935;28;20105;-79
2022/03/04 03:42:30;;;;;;;17.58;8.95;;;;;;;;;;4995414;28;20374;-79
2022/03/04 03:44:56;;;;;;;17.77;8.93;;;;;;;;;;4986614;28;20030;-79
2022/03/04 03:47:21;;;;;;;20.65;9.57;;;;;;;;;;5004182;28;20017;-78
2022/03/04 03:49:46;;;;;;;24.58;11.35;;;;;;;;;;5010655;28;20033;-79
2022/03/04 03:52:12;;;;;;;18.08;9.07;;;;;;;;;;4995933;28;20155;-79
2022/03/04 03:54:37;;;;;;;23.55;9.25;;;;;;;;;;4987684;28;20041;-79
2022/03/04 03:57:03;;;;;;;20.45;9.57;;;;;;;;;;4997395;28;20023;-79
2022/03/04 03:59:29;;;;;;;18.25;8.77;;;;;;;;;;4987159;28;20022;-80
2022/03/04 04:01:54;;;;;;;24.77;8.88;;;;;;;;;;5000751;28;20040;-80
2022/03/04 04:04:20;;;;;;;16.88;9.18;;;;;;;;;;4981981;28;20026;-78
2022/03/04 04:06:45;;;;;;;15.23;8.73;;;;;;;;;;4988366;28;20478;-79
2022/03/04 04:09:11;;;;;;;15.82;8.98;;;;;;;;;;4996948;28;20038;-79
2022/03/04 04:11:39;;;;;;;15.52;8.82;;;;;;;;;;4995065;28;20142;-79
2022/03/04 04:14:05;;;;;;;17.67;9.15;;;;;;;;;;4995860;28;20076;-79
2022/03/04 04:16:31;;;;;;;14.13;8.00;;;;;;;;;;4996353;28;20041;-79
2022/03/04 04:18:57;;;;;;;16.13;9.35;;;;;;;;;;4997065;28;20026;-80
2022/03/04 04:21:23;;;;;;;20.38;10.45;;;;;;;;;;5001925;28;20021;-80
2022/03/04 04:23:49;;;;;;;18.38;8.23;;;;;;;;;;4979660;28;20076;-79
2022/03/04 04:26:14;;;;;;;21.88;9.77;;;;;;;;;;4996419;28;20038;-79
2022/03/04 04:28:40;;;;;;;16.70;9.23;;;;;;;;;;4991808;28;20030;-80
2022/03/04 04:31:05;;;;;;;18.38;9.15;;;;;;;;;;4999439;28;20094;-80
2022/03/04 04:33:34;;;;;;;15.90;9.27;;;;;;;;;;4997386;28;20023;-80
2022/03/04 04:35:59;;;;;;;17.00;9.48;;;;;;;;;;4990725;28;20034;-79
2022/03/04 04:38:24;;;;;;;17.95;9.43;;;;;;;;;;4998366;28;20093;-79
2022/03/04 04:40:50;;;;;;;14.02;8.23;;;;;;;;;;4993205;28;20033;-80
2022/03/04 04:43:15;;;;;;;17.92;8.85;;;;;;;;;;4986574;28;20030;-79
2022/03/04 04:45:41;;;;;;;27.00;10.30;;;;;;;;;;4991886;28;20046;-79
2022/03/04 04:48:06;;;;;;;16.08;9.57;;;;;;;;;;4995201;28;20155;-77
2022/03/04 04:50:32;;;;;;;19.27;9.27;;;;;;;;;;5000997;28;20034;-77
2022/03/04 04:52:58;;;;;;;20.10;10.63;;;;;;;;;;4974767;28;20475;-77
2022/03/04 04:55:23;;;;;;;20.17;10.05;;;;;;;;;;4994670;28;20287;-78
2022/03/04 04:57:48;;;;;;;18.25;9.68;;;;;;;;;;4997264;28;20422;-78
2022/03/04 05:00:14;;;;;;;17.58;9.73;;;;;;;;;;5005800;28;20030;-79
2022/03/04 05:02:39;;;;;;;24.55;9.25;;;;;;;;;;4998059;28;20135;-78
2022/03/04 05:05:05;;;;;;;19.92;9.75;;;;;;;;;;4986682;28;20022;-78
2022/03/04 05:07:31;;;;;;;19.60;10.50;;;;;;;;;;5001267;28;20022;-78
2022/03/04 05:09:56;;;;;;;20.63;10.23;;;;;;;;;;4990580;28;20098;-79
2022/03/04 05:12:32;;;;;;;19.85;9.85;;;;;;;;;;4992138;28;20041;-81
2022/03/04 05:14:57;;;;;;;19.20;10.43;;;;;;;;;;4981536;28;20034;-80
2022/03/04 05:17:24;;;;;;;23.02;10.65;;;;;;;;;;4991785;28;20388;-80
2022/03/04 05:19:50;;;;;;;21.45;10.13;;;;;;;;;;4970924;28;20029;-80
2022/03/04 05:22:15;;;;;;;17.55;9.98;;;;;;;;;;4981697;28;20035;-79
2022/03/04 05:24:40;;;;;;;17.83;10.10;;;;;;;;;;4966137;28;20040;-79
2022/03/04 05:27:06;;;;;;;21.13;10.05;;;;;;;;;;4972840;28;20025;-79
2022/03/04 05:29:34;;;;;;;17.73;9.57;;;;;;;;;;5002913;28;20109;-80
2022/03/04 05:32:00;;;;;;;17.83;9.40;;;;;;;;;;5002736;28;20017;-80
2022/03/04 05:34:26;;;;;;;23.80;9.82;;;;;;;;;;4981028;28;20126;-80
2022/03/04 05:36:51;;;;;;;21.80;10.52;;;;;;;;;;4987373;28;20037;-81
2022/03/04 05:39:16;;;;;;;22.60;10.23;;;;;;;;;;4983058;28;20179;-80
2022/03/04 05:41:45;;;;;;;20.40;10.07;;;;;;;;;;5000280;28;20026;-79
2022/03/04 05:44:10;;;;;;;19.50;9.95;;;;;;;;;;4979967;28;20440;-81
2022/03/04 05:46:36;;;;;;;20.92;10.07;;;;;;;;;;4987958;28;20505;-79
2022/03/04 05:49:02;;;;;;;22.58;11.18;;;;;;;;;;4977916;28;20029;-79
2022/03/04 05:51:29;;;;;;;28.92;11.15;;;;;;;;;;4994364;28;20022;-79
2022/03/04 05:53:54;;;;;;;25.00;11.20;;;;;;;;;;4991801;28;20040;-80
2022/03/04 05:56:20;;;;;;;29.80;11.57;;;;;;;;;;4995190;28;20026;-79
2022/03/04 05:58:45;;;;;;;23.92;10.95;;;;;;;;;;4978473;28;20365;-79
2022/03/04 06:01:11;;;;;;;18.27;9.77;;;;;;;;;;4978746;28;20061;-79
2022/03/04 06:03:37;;;;;;;24.60;10.85;;;;;;;;;;4982876;28;20057;-79
2022/03/04 06:06:03;;;;;;;22.42;10.57;;;;;;;;;;4994047;28;20384;-79
2022/03/04 06:08:28;;;;;;;19.83;9.77;;;;;;;;;;4990044;28;20098;-79
2022/03/04 06:10:54;;;;;;;17.83;9.63;;;;;;;;;;5006074;28;20031;-80
2022/03/04 06:13:19;;;;;;;20.45;9.52;;;;;;;;;;4997741;28;20098;-79
2022/03/04 06:15:45;;;;;;;19.67;9.27;;;;;;;;;;4998447;28;20102;-79
2022/03/04 06:18:10;;;;;;;23.52;10.35;;;;;;;;;;4991234;28;20030;-79
2022/03/04 06:20:36;;;;;;;22.83;10.68;;;;;;;;;;4971347;28;20423;-79
2022/03/04 06:23:01;;;;;;;22.00;10.20;;;;;;;;;;4990813;28;20489;-79
2022/03/04 06:25:26;;;;;;;18.10;9.98;;;;;;;;;;4982761;28;20037;-79
2022/03/04 06:28:04;;;;;;;22.50;10.55;;;;;;;;;;5001615;28;20026;-79
2022/03/04 06:30:36;;;;;;;23.70;9.63;;;;;;;;;;4995232;28;20030;-80
2022/03/04 06:35:46;;;;;;;18.20;8.98;;;;;;;;;;4987403;28;19917;-79
2022/03/04 06:38:12;;;;;;;27.30;10.65;;;;;;;;;;4976471;28;20022;-79
2022/03/04 06:40:38;;;;;;;19.75;9.63;;;;;;;;;;5001887;28;20034;-79
2022/03/04 06:43:05;;;;;;;22.35;10.18;;;;;;;;;;4990002;28;20033;-80
2022/03/04 06:45:31;;;;;;;23.23;10.90;;;;;;;;;;4987787;28;20450;-80
2022/03/04 06:47:56;;;;;;;25.40;10.55;;;;;;;;;;5001698;28;20018;-80
2022/03/04 06:50:22;;;;;;;21.00;10.65;;;;;;;;;;5006402;28;20019;-81
2022/03/04 06:52:47;;;;;;;22.55;11.38;;;;;;;;;;4976782;28;20685;-80
2022/03/04 06:55:13;;;;;;;22.30;10.73;;;;;;;;;;4971809;28;20476;-80
2022/03/04 06:57:39;;;;;;;30.70;11.93;;;;;;;;;;4993036;28;20035;-79
2022/03/04 07:00:10;;;;;;;27.40;11.18;;;;;;;;;;4999069;28;20019;-79
2022/03/04 07:02:37;;;;;;;20.85;11.85;;;;;;;;;;4993092;28;20030;-82
2022/03/04 07:05:07;;;;;;;24.33;11.85;;;;;;;;;;4983545;28;20031;-80
2022/03/04 07:07:33;;;;;;;28.45;12.10;;;;;;;;;;4993714;28;20106;-79
2022/03/04 07:09:58;;;;;;;26.40;11.88;;;;;;;;;;4999121;28;20104;-80
2022/03/04 07:12:24;;;;;;;19.90;11.48;;;;;;;;;;4993529;28;20022;-80
2022/03/04 07:14:50;;;;;;;19.38;11.63;;;;;;;;;;4998192;28;20030;-80
2022/03/04 07:17:16;;;;;;;24.88;11.65;;;;;;;;;;5006133;28;20018;-80
2022/03/04 07:19:41;;;;;;;21.67;11.85;;;;;;;;;;4997667;28;20028;-80
2022/03/04 07:22:07;;;;;;;22.88;11.40;;;;;;;;;;4995971;28;20048;-80
2022/03/04 07:24:33;;;;;;;19.17;11.68;;;;;;;;;;4983786;28;20050;-80
2022/03/04 07:26:58;;;;;;;21.38;12.23;;;;;;;;;;4990448;28;20135;-80
2022/03/04 07:29:24;;;;;;;23.13;11.82;;;;;;;;;;4998000;28;20033;-80
2022/03/04 07:31:50;;;;;;;24.25;12.43;;;;;;;;;;4994280;28;20026;-80
2022/03/04 07:34:15;;;;;;;21.10;12.27;;;;;;;;;;4985705;28;20026;-81
2022/03/04 07:36:41;;;;;;;19.40;12.32;;;;;;;;;;4991534;28;20085;-80
2022/03/04 07:39:07;;;;;;;22.48;12.65;;;;;;;;;;5001831;28;20053;-80
2022/03/04 07:41:32;;;;;;;19.65;12.50;;;;;;;;;;4995459;28;20029;-81
2022/03/04 07:43:59;;;;;;;23.02;13.05;;;;;;;;;;4983419;28;20022;-81
2022/03/04 07:46:25;;;;;;;20.00;12.27;;;;;;;;;;4988922;28;20484;-81
2022/03/04 07:48:50;;;;;;;22.90;12.30;;;;;;;;;;4994943;28;20122;-80
2022/03/04 07:51:16;;;;;;;22.65;11.85;;;;;;;;;;4995684;28;20481;-80
2022/03/04 07:53:41;;;;;;;18.73;11.57;;;;;;;;;;4995842;28;20373;-80
2022/03/04 07:56:07;;;;;;;17.88;11.82;;;;;;;;;;4997358;28;20085;-81
2022/03/04 07:58:32;;;;;;;24.52;13.25;;;;;;;;;;4997271;28;20081;-81
2022/03/04 08:00:57;;;;;;;21.88;12.57;;;;;;;;;;4980135;28;20022;-81
2022/03/04 08:03:23;;;;;;;23.17;13.07;;;;;;;;;;4986651;28;20094;-80
2022/03/04 08:05:48;;;;;;;19.88;12.35;;;;;;;;;;4987724;28;20093;-81
2022/03/04 08:08:13;;;;;;;18.48;12.25;;;;;;;;;;4992274;28;20100;-81
2022/03/04 08:10:39;;;;;;;22.77;12.25;;;;;;;;;;4996647;28;20105;-81
2022/03/04 08:13:05;;;;;;;23.67;11.80;;;;;;;;;;4988736;28;20035;-80
2022/03/04 08:15:30;;;;;;;22.08;11.93;;;;;;;;;;4985689;28;20393;-80
2022/03/04 08:17:56;;;;;;;18.92;10.93;;;;;;;;;;4993024;28;20537;-80
2022/03/04 08:20:22;;;;;;;24.42;11.90;;;;;;;;;;4999549;28;20109;-81
2022/03/04 08:22:47;;;;;;;20.65;12.15;;;;;;;;;;4991984;28;20065;-80
2022/03/04 08:25:13;;;;;;;21.98;11.80;;;;;;;;;;4984360;28;20105;-81
2022/03/04 08:27:39;;;;;;;20.45;11.25;;;;;;;;;;4991883;28;20109;-81
2022/03/04 08:30:07;;;;;;;23.00;12.68;;;;;;;;;;4997705;28;20022;-80
2022/03/04 08:32:33;;;;;;;21.25;12.65;;;;;;;;;;4991616;28;20060;-81
2022/03/04 08:34:59;;;;;;;23.20;12.20;;;;;;;;;;4973307;28;20022;-81
2022/03/04 08:37:25;;;;;;;23.50;12.65;;;;;;;;;;4992062;28;20370;-80
2022/03/04 08:39:50;;;;;;;22.38;13.35;;;;;;;;;;4975051;28;20027;-80
2022/03/04 08:42:15;;;;;;;25.73;13.30;;;;;;;;;;4987819;28;20412;-81
2022/03/04 08:44:42;;;;;;;21.52;12.63;;;;;;;;;;4995290;28;20026;-80
2022/03/04 08:47:08;;;;;;;20.67;12.60;;;;;;;;;;4996126;28;20022;-81
2022/03/04 08:49:34;;;;;;;22.48;12.98;;;;;;;;;;4995044;28;20050;-80
2022/03/04 08:51:59;;;;;;;23.75;12.88;;;;;;;;;;4971413;28;20143;-80
2022/03/04 08:54:25;;;;;;;21.70;11.95;;;;;;;;;;4979833;28;20034;-81
2022/03/04 08:56:51;;;;;;;22.70;12.82;;;;;;;;;;4969883;28;20029;-80
2022/03/04 08:59:16;;;;;;;23.63;13.35;;;;;;;;;;4996371;28;20023;-80
2022/03/04 09:01:41;;;;;;;19.35;12.18;;;;;;;;;;4993642;28;20026;-80
2022/03/04 09:04:07;;;;;;;24.10;13.20;;;;;;;;;;4983177;28;20027;-81
2022/03/04 09:06:32;;;;;;;22.67;12.25;;;;;;;;;;4987105;28;20162;-80
2022/03/04 09:08:58;;;;;;;22.88;12.65;;;;;;;;;;4993343;28;20042;-80
2022/03/04 09:11:24;;;;;;;25.17;13.30;;;;;;;;;;5003019;28;20148;-81
2022/03/04 09:13:49;;;;;;;21.50;12.63;;;;;;;;;;4983315;28;20031;-80
2022/03/04 09:16:15;;;;;;;23.25;12.18;;;;;;;;;;4989133;28;20036;-80
2022/03/04 09:18:40;;;;;;;24.15;13.35;;;;;;;;;;4990934;28;20030;-80
2022/03/04 09:21:05;;;;;;;23.95;12.63;;;;;;;;;;4995513;28;20041;-80
2022/03/04 09:23:31;;;;;;;23.17;12.75;;;;;;;;;;4983720;28;20050;-80
2022/03/04 09:25:56;;;;;;;22.80;13.70;;;;;;;;;;4996166;28;20034;-78
2022/03/04 09:28:22;;;;;;;21.33;12.20;;;;;;;;;;5001750;28;20073;-80
2022/03/04 09:30:47;;;;;;;21.58;12.63;;;;;;;;;;5013414;28;20050;-79
2022/03/04 09:33:12;;;;;;;22.65;12.32;;;;;;;;;;4999565;28;20018;-79
2022/03/04 09:35:38;;;;;;;28.35;13.55;;;;;;;;;;4990668;28;20045;-78
2022/03/04 09:38:04;;;;;;;24.55;12.57;;;;;;;;;;5004563;28;20034;-79
2022/03/04 09:40:31;;;;;;;21.80;12.05;;;;;;;;;;5010294;28;20022;-78
2022/03/04 09:42:57;;;;;;;25.38;12.88;;;;;;;;;;4993073;28;20023;-78
2022/03/04 09:45:22;;;;;;;22.02;12.32;;;;;;;;;;4994765;28;20036;-78
2022/03/04 09:47:48;;;;;;;25.75;12.95;;;;;;;;;;4987477;28;20072;-79
2022/03/04 09:50:16;;;;;;;22.25;12.23;;;;;;;;;;5002056;28;20030;-79
2022/03/04 09:52:42;;;;;;;26.10;13.25;;;;;;;;;;4991519;28;20030;-78
2022/03/04 09:55:08;;;;;;;21.52;11.10;;;;;;;;;;4992979;28;20054;-79
2022/03/04 09:57:33;;;;;;;23.48;12.52;;;;;;;;;;5002283;28;20108;-79
2022/03/04 09:59:59;;;;;;;22.42;12.38;;;;;;;;;;4996264;28;20038;-79
2022/03/04 10:02:25;;;;;;;30.77;13.07;;;;;;;;;;4994649;28;20054;-79
2022/03/04 10:04:59;;;;;;;21.80;12.30;;;;;;;;;;4963775;28;20481;-80
2022/03/04 10:07:24;;;;;;;27.55;13.13;;;;;;;;;;4976818;28;20108;-80
2022/03/04 10:09:50;;;;;;;21.80;13.10;;;;;;;;;;5002152;28;20515;-80
2022/03/04 10:12:17;;;;;;;24.73;13.52;;;;;;;;;;4988830;28;20026;-82
2022/03/04 10:14:58;;;;;;;21.88;12.05;;;;;;;;;;4984651;28;20026;-80
2022/03/04 10:17:25;;;;;;;22.40;12.55;;;;;;;;;;4993298;28;20488;-79
2022/03/04 10:19:52;;;;;;;22.45;12.48;;;;;;;;;;5004031;28;20172;-81
2022/03/04 10:22:17;;;;;;;21.27;12.63;;;;;;;;;;5004098;28;20031;-79
2022/03/04 10:24:42;;;;;;;23.88;12.38;;;;;;;;;;4997089;28;20052;-79
2022/03/04 10:27:10;;;;;;;26.10;13.57;;;;;;;;;;5012567;28;20030;-79
2022/03/04 10:29:39;;;;;;;24.15;12.30;;;;;;;;;;5013977;28;20082;-80
2022/03/04 10:32:10;;;;;;;30.60;12.07;;;;;;;;;;5014539;28;20037;-80
2022/03/04 10:35:06;;;;;;;26.20;12.77;;;;;;;;;;4980838;28;20054;-79
2022/03/04 10:38:04;;;;;;;26.35;12.15;;;;;;;;;;4965738;28;20280;-79
2022/03/04 10:40:32;;;;;;;30.40;12.98;;;;;;;;;;5002020;28;20030;-79
2022/03/04 10:43:07;;;;;;;25.20;12.75;;;;;;;;;;4979981;28;20564;-79
2022/03/04 10:45:44;;;;;;;24.77;13.18;;;;;;;;;;4975609;28;20036;-78
2022/03/04 10:48:14;;;;;;;25.23;12.23;;;;;;;;;;5002539;28;20032;-80
2022/03/04 10:50:49;;;;;;;27.30;12.50;;;;;;;;;;5009773;28;20029;-79
2022/03/04 10:53:19;;;;;;;25.10;12.43;;;;;;;;;;4993653;28;20109;-78
2022/03/04 10:55:47;;;;;;;22.70;12.27;;;;;;;;;;4993999;28;20474;-81
2022/03/04 10:58:36;;;;;;;24.35;13.25;;;;;;;;;;5011892;28;20489;-81
2022/03/04 11:01:10;;;;;;;25.90;12.65;;;;;;;;;;5004688;28;20031;-80
2022/03/04 11:03:37;;;;;;;24.10;12.52;;;;;;;;;;4994950;28;20034;-81
2022/03/04 11:06:07;;;;;;;24.40;12.55;;;;;;;;;;4998949;28;20021;-80
2022/03/04 11:08:34;;;;;;;25.63;13.27;;;;;;;;;;5002363;28;20019;-80
2022/03/04 11:11:13;;;;;;;24.40;12.45;;;;;;;;;;5010601;28;20035;-80
2022/03/04 11:13:39;;;;;;;23.15;11.50;;;;;;;;;;4992112;28;20030;-81
2022/03/04 11:16:06;;;;;;;19.75;11.32;;;;;;;;;;4989293;28;20026;-80
2022/03/04 11:18:33;;;;;;;22.15;11.48;;;;;;;;;;4993214;28;20023;-80
2022/03/04 11:20:59;;;;;;;24.23;12.02;;;;;;;;;;5003273;28;20034;-80
2022/03/04 11:23:27;;;;;;;24.35;12.82;;;;;;;;;;4988521;28;20098;-80
2022/03/04 11:25:59;;;;;;;25.70;11.95;;;;;;;;;;4988385;28;20053;-79
2022/03/04 11:28:49;;;;;;;26.15;12.15;;;;;;;;;;5004529;28;20400;-79
2022/03/04 11:31:20;;;;;;;19.25;10.02;;;;;;;;;;5003400;28;20018;-79
2022/03/04 11:33:58;;;;;;;22.73;12.40;;;;;;;;;;4988460;28;20070;-79
2022/03/04 11:36:36;;;;;;;24.50;12.73;;;;;;;;;;4997862;28;20276;-80
2022/03/04 11:39:06;;;;;;;23.17;12.15;;;;;;;;;;5001517;28;20031;-80
2022/03/04 11:41:36;;;;;;;22.67;12.27;;;;;;;;;;4996712;28;20026;-80
2022/03/04 11:44:08;;;;;;;22.30;12.38;;;;;;;;;;4979931;28;20023;-80
2022/03/04 11:47:13;;;;;;;23.85;12.48;;;;;;;;;;4969528;28;20058;-80
2022/03/04 11:49:43;;;;;;;23.38;10.43;;;;;;;;;;4974206;28;20620;-79
2022/03/04 11:52:09;;;;;;;21.77;11.68;;;;;;;;;;4992167;28;20117;-79
2022/03/04 11:54:50;;;;;;;22.33;11.23;;;;;;;;;;4981273;28;20267;-80
2022/03/04 11:57:19;;;;;;;23.98;11.70;;;;;;;;;;4976399;28;20025;-79
2022/03/04 11:59:58;;;;;;;19.20;10.95;;;;;;;;;;4974901;28;20022;-81
2022/03/04 12:02:28;;;;;;;23.83;11.02;;;;;;;;;;4992594;28;20022;-80
2022/03/04 12:05:12;;;;;;;20.48;10.95;;;;;;;;;;4989684;28;20405;-80
2022/03/04 12:07:37;;;;;;;25.58;11.52;;;;;;;;;;4983014;28;20033;-79
2022/03/04 12:10:08;;;;;;;21.63;11.55;;;;;;;;;;4963372;28;20117;-80
2022/03/04 12:12:34;;;;;;;20.65;11.82;;;;;;;;;;4993050;28;20030;-79
2022/03/04 12:15:15;;;;;;;23.00;11.40;;;;;;;;;;4990785;28;20042;-79
2022/03/04 12:18:04;;;;;;;21.58;11.43;;;;;;;;;;4986504;28;20125;-79
2022/03/04 12:20:39;;;;;;;19.17;11.07;;;;;;;;;;4999020;28;20442;-79
2022/03/04 12:23:19;;;;;;;20.38;10.60;;;;;;;;;;4988062;28;20398;-80
2022/03/04 12:26:09;;;;;;;20.48;11.38;;;;;;;;;;5002884;28;20111;-80
2022/03/04 12:28:40;;;;;;;21.38;11.10;;;;;;;;;;4988068;28;20038;-79
2022/03/04 12:31:12;;;;;;;19.70;11.40;;;;;;;;;;4995657;28;20478;-80
2022/03/04 12:33:44;;;;;;;22.20;12.03;;;;;;;;;;4986620;28;20034;-79
2022/03/04 12:36:19;;;;;;;21.67;10.75;;;;;;;;;;4978589;28;20129;-79
2022/03/04 12:38:48;;;;;;;29.85;12.63;;;;;;;;;;4994124;28;20041;-79
2022/03/04 12:41:16;;;;;;;21.65;11.25;;;;;;;;;;4986941;28;20030;-79
2022/03/04 12:43:56;;;;;;;18.67;10.65;;;;;;;;;;4989666;28;20164;-79
2022/03/04 12:46:25;;;;;;;18.75;11.43;;;;;;;;;;4997769;28;20036;-80
2022/03/04 12:48:52;;;;;;;31.33;11.57;;;;;;;;;;4999984;28;20022;-80
2022/03/04 12:51:21;;;;;;;19.63;11.55;;;;;;;;;;4979126;28;20555;-81
2022/03/04 12:53:47;;;;;;;20.55;9.63;;;;;;;;;;4971766;28;20600;-79
2022/03/04 12:56:13;;;;;;;21.80;10.57;;;;;;;;;;4978273;28;20065;-81
2022/03/04 12:58:45;;;;;;;19.55;11.52;;;;;;;;;;4979223;28;20401;-82
2022/03/04 13:01:13;;;;;;;16.05;8.80;;;;;;;;;;5001155;28;20041;-81
2022/03/04 13:03:43;;;;;;;18.20;8.82;;;;;;;;;;4987127;28;20188;-79
2022/03/04 13:06:12;;;;;;;16.40;10.35;;;;;;;;;;4993085;28;20033;-80
2022/03/04 13:08:49;;;;;;;17.90;9.25;;;;;;;;;;4992922;28;20042;-80
2022/03/04 13:11:20;;;;;;;17.80;10.50;;;;;;;;;;4995952;28;20022;-80
2022/03/04 13:13:54;;;;;;;19.25;9.57;;;;;;;;;;4972531;28;20481;-81
2022/03/04 13:16:25;;;;;;;15.00;8.75;;;;;;;;;;4970565;28;20125;-81
2022/03/04 13:18:52;;;;;;;20.25;9.77;;;;;;;;;;4998073;28;20023;-81
2022/03/04 13:21:19;;;;;;;16.80;8.63;;;;;;;;;;4996621;28;20034;-81
2022/03/04 13:23:53;;;;;;;19.55;9.93;;;;;;;;;;4988116;28;20108;-81
2022/03/04 13:26:22;;;;;;;18.75;8.95;;;;;;;;;;4971242;28;20033;-81
2022/03/04 13:28:59;;;;;;;20.23;9.57;;;;;;;;;;4982907;28;20160;-80
2022/03/04 13:31:27;;;;;;;18.50;9.10;;;;;;;;;;4972969;28;20033;-81
2022/03/04 13:33:59;;;;;;;19.38;9.73;;;;;;;;;;4983965;28;20039;-81
2022/03/04 13:36:47;;;;;;;30.92;10.20;;;;;;;;;;4990905;28;20133;-80
2022/03/04 13:39:30;;;;;;;19.58;9.70;;;;;;;;;;4992185;28;20548;-80
2022/03/04 13:42:26;;;;;;;16.52;9.07;;;;;;;;;;4996092;28;20031;-81
2022/03/04 13:48:56;;;;;;;16.80;8.35;;;;;;;;;;4987709;28;20022;-81
2022/03/04 13:51:44;;;;;;;16.48;8.95;;;;;;;;;;4981902;28;20030;-81
2022/03/04 13:54:09;;;;;;;15.40;8.45;;;;;;;;;;4965329;28;20035;-80
2022/03/04 13:56:42;;;;;;;15.52;8.73;;;;;;;;;;4997378;28;20086;-82
2022/03/04 13:59:16;;;;;;;;;;;;;;;;;;5001125;28;20073;-80
2022/03/04 14:01:43;;;;;;;16.83;8.68;;;;;;;;;;4980826;28;19917;-80
2022/03/04 14:04:19;;;;;;;12.02;7.22;;;;;;;;;;4957522;28;20401;-79
2022/03/04 14:06:47;;;;;;;14.07;8.73;;;;;;;;;;4985585;28;20030;-80
2022/03/04 14:09:13;;;;;;;15.80;7.88;;;;;;;;;;4998815;28;20045;-80
2022/03/04 14:11:39;;;;;;;16.30;8.43;;;;;;;;;;5008785;28;20455;-80
2022/03/04 14:14:04;;;;;;;17.05;7.20;;;;;;;;;;4981132;28;20057;-80
2022/03/04 14:16:31;;;;;;;17.77;7.85;;;;;;;;;;4996343;28;20030;-80
2022/03/04 14:18:58;;;;;;;15.70;8.68;;;;;;;;;;4998549;28;20147;-79
2022/03/04 14:21:23;;;;;;;15.38;8.25;;;;;;;;;;5005975;28;20466;-81
2022/03/04 14:23:49;;;;;;;16.73;8.07;;;;;;;;;;4988749;28;20053;-80
2022/03/04 14:26:14;;;;;;;15.68;6.97;;;;;;;;;;4981919;28;20065;-80
2022/03/04 14:29:09;;;;;;;12.10;6.88;;;;;;;;;;5008513;28;20030;-81
2022/03/04 14:31:25;;;;;;;13.13;6.05;;;;;;;;;;4995876;28;20061;-80
2022/03/04 14:33:50;;;;;;;14.32;6.07;;;;;;;;;;4994835;28;20034;-79